sensor_id;sensor_type;location;lat;lon;timestamp;temperature;humidity
67820;DHT22;54618;52.018;5.576;2022-11-04T00:01:54;18.10;65.40
67820;DHT22;54618;52.018;5.576;2022-11-04T00:04:21;18.10;65.40
67820;DHT22;54618;52.018;5.576;2022-11-04T00:06:47;18.10;65.50
67820;DHT22;54618;52.018;5.576;2022-11-04T00:09:19;18.10;65.50
67820;DHT22;54618;52.018;5.576;2022-11-04T00:11:45;18.10;65.50
67820;DHT22;54618;52.018;5.576;2022-11-04T00:14:29;18.10;65.60
67820;DHT22;54618;52.018;5.576;2022-11-04T00:16:56;18.10;65.50
67820;DHT22;54618;52.018;5.576;2022-11-04T00:19:40;18.10;65.50
67820;DHT22;54618;52.018;5.576;2022-11-04T00:22:24;18.10;65.60
67820;DHT22;54618;52.018;5.576;2022-11-04T00:25:08;18.10;65.60
67820;DHT22;54618;52.018;5.576;2022-11-04T00:28:04;18.10;65.60
67820;DHT22;54618;52.018;5.576;2022-11-04T00:30:53;18.10;65.60
67820;DHT22;54618;52.018;5.576;2022-11-04T00:33:18;18.10;65.60
67820;DHT22;54618;52.018;5.576;2022-11-04T00:35:51;18.10;65.60
67820;DHT22;54618;52.018;5.576;2022-11-04T00:38:17;18.10;65.60
67820;DHT22;54618;52.018;5.576;2022-11-04T00:40:43;18.10;65.60
67820;DHT22;54618;52.018;5.576;2022-11-04T00:43:09;18.10;65.60
67820;DHT22;54618;52.018;5.576;2022-11-04T00:45:34;18.10;65.60
67820;DHT22;54618;52.018;5.576;2022-11-04T00:48:00;18.10;65.60
67820;DHT22;54618;52.018;5.576;2022-11-04T00:50:25;18.10;65.60
67820;DHT22;54618;52.018;5.576;2022-11-04T00:52:51;18.10;65.60
67820;DHT22;54618;52.018;5.576;2022-11-04T00:55:22;18.00;66.10
67820;DHT22;54618;52.018;5.576;2022-11-04T00:57:47;18.10;65.50
67820;DHT22;54618;52.018;5.576;2022-11-04T01:00:13;18.10;65.50
67820;DHT22;54618;52.018;5.576;2022-11-04T01:02:39;18.00;65.40
67820;DHT22;54618;52.018;5.576;2022-11-04T01:05:04;18.00;65.40
67820;DHT22;54618;52.018;5.576;2022-11-04T01:07:30;18.10;65.40
67820;DHT22;54618;52.018;5.576;2022-11-04T01:09:55;18.10;65.40
67820;DHT22;54618;52.018;5.576;2022-11-04T01:12:21;18.00;65.30
67820;DHT22;54618;52.018;5.576;2022-11-04T01:14:46;18.10;65.30
67820;DHT22;54618;52.018;5.576;2022-11-04T01:17:14;18.00;65.30
67820;DHT22;54618;52.018;5.576;2022-11-04T01:19:39;18.00;65.20
67820;DHT22;54618;52.018;5.576;2022-11-04T01:22:05;18.00;65.20
67820;DHT22;54618;52.018;5.576;2022-11-04T01:24:30;18.10;65.30
67820;DHT22;54618;52.018;5.576;2022-11-04T01:26:56;18.00;65.20
67820;DHT22;54618;52.018;5.576;2022-11-04T01:29:21;18.00;65.20
67820;DHT22;54618;52.018;5.576;2022-11-04T01:31:47;18.00;65.20
67820;DHT22;54618;52.018;5.576;2022-11-04T01:34:12;18.10;65.20
67820;DHT22;54618;52.018;5.576;2022-11-04T01:36:38;18.00;65.20
67820;DHT22;54618;52.018;5.576;2022-11-04T01:39:03;18.10;65.20
67820;DHT22;54618;52.018;5.576;2022-11-04T01:41:31;18.00;65.10
67820;DHT22;54618;52.018;5.576;2022-11-04T01:44:02;18.00;65.20
67820;DHT22;54618;52.018;5.576;2022-11-04T01:46:41;18.00;65.10
67820;DHT22;54618;52.018;5.576;2022-11-04T01:49:28;18.00;65.10
67820;DHT22;54618;52.018;5.576;2022-11-04T01:52:17;18.00;65.10
67820;DHT22;54618;52.018;5.576;2022-11-04T01:54:47;18.00;65.00
67820;DHT22;54618;52.018;5.576;2022-11-04T01:57:18;18.00;65.10
67820;DHT22;54618;52.018;5.576;2022-11-04T01:59:44;18.00;65.10
67820;DHT22;54618;52.018;5.576;2022-11-04T02:02:10;18.00;65.00
67820;DHT22;54618;52.018;5.576;2022-11-04T02:04:37;18.00;65.10
67820;DHT22;54618;52.018;5.576;2022-11-04T02:07:07;18.00;65.10
67820;DHT22;54618;52.018;5.576;2022-11-04T02:09:37;18.00;65.00
67820;DHT22;54618;52.018;5.576;2022-11-04T02:12:03;18.00;65.10
67820;DHT22;54618;52.018;5.576;2022-11-04T02:14:49;18.00;65.00
67820;DHT22;54618;52.018;5.576;2022-11-04T02:30:24;18.00;65.00
67820;DHT22;54618;52.018;5.576;2022-11-04T02:33:22;18.00;65.00
67820;DHT22;54618;52.018;5.576;2022-11-04T02:36:01;18.00;64.90
67820;DHT22;54618;52.018;5.576;2022-11-04T02:39:05;18.00;65.00
67820;DHT22;54618;52.018;5.576;2022-11-04T02:41:40;18.00;64.90
67820;DHT22;54618;52.018;5.576;2022-11-04T02:44:17;18.00;65.00
67820;DHT22;54618;52.018;5.576;2022-11-04T02:49:18;18.00;64.90
67820;DHT22;54618;52.018;5.576;2022-11-04T02:52:07;18.00;64.90
67820;DHT22;54618;52.018;5.576;2022-11-04T02:54:40;18.00;64.90
67820;DHT22;54618;52.018;5.576;2022-11-04T02:57:09;18.00;64.90
67820;DHT22;54618;52.018;5.576;2022-11-04T03:02:26;18.00;64.90
67820;DHT22;54618;52.018;5.576;2022-11-04T03:04:54;17.90;64.80
67820;DHT22;54618;52.018;5.576;2022-11-04T03:07:26;18.00;64.90
67820;DHT22;54618;52.018;5.576;2022-11-04T03:09:58;18.00;64.80
67820;DHT22;54618;52.018;5.576;2022-11-04T03:12:28;18.00;64.80
67820;DHT22;54618;52.018;5.576;2022-11-04T03:15:00;18.00;64.80
67820;DHT22;54618;52.018;5.576;2022-11-04T03:17:34;17.90;64.80
67820;DHT22;54618;52.018;5.576;2022-11-04T03:20:13;17.90;64.70
67820;DHT22;54618;52.018;5.576;2022-11-04T03:22:42;18.00;64.80
67820;DHT22;54618;52.018;5.576;2022-11-04T03:25:08;18.00;64.80
67820;DHT22;54618;52.018;5.576;2022-11-04T03:27:44;17.90;64.70
67820;DHT22;54618;52.018;5.576;2022-11-04T03:30:13;18.00;64.80
67820;DHT22;54618;52.018;5.576;2022-11-04T03:33:04;18.00;64.80
67820;DHT22;54618;52.018;5.576;2022-11-04T03:35:31;17.90;64.70
67820;DHT22;54618;52.018;5.576;2022-11-04T03:37:57;18.00;64.70
67820;DHT22;54618;52.018;5.576;2022-11-04T03:40:23;18.00;64.70
67820;DHT22;54618;52.018;5.576;2022-11-04T03:42:55;18.00;64.80
67820;DHT22;54618;52.018;5.576;2022-11-04T03:45:23;17.90;64.70
67820;DHT22;54618;52.018;5.576;2022-11-04T03:47:50;17.90;64.70
67820;DHT22;54618;52.018;5.576;2022-11-04T03:50:29;17.90;64.70
67820;DHT22;54618;52.018;5.576;2022-11-04T03:52:56;18.00;64.70
67820;DHT22;54618;52.018;5.576;2022-11-04T03:58:46;18.00;64.80
67820;DHT22;54618;52.018;5.576;2022-11-04T04:02:17;17.90;64.60
67820;DHT22;54618;52.018;5.576;2022-11-04T04:04:28;18.00;64.70
67820;DHT22;54618;52.018;5.576;2022-11-04T04:07:03;17.90;64.70
67820;DHT22;54618;52.018;5.576;2022-11-04T04:09:44;17.90;64.70
67820;DHT22;54618;52.018;5.576;2022-11-04T04:14:55;17.90;64.60
67820;DHT22;54618;52.018;5.576;2022-11-04T04:17:34;18.00;64.70
67820;DHT22;54618;52.018;5.576;2022-11-04T04:20:28;17.90;64.60
67820;DHT22;54618;52.018;5.576;2022-11-04T04:23:12;18.00;64.60
67820;DHT22;54618;52.018;5.576;2022-11-04T04:26:00;18.00;64.60
67820;DHT22;54618;52.018;5.576;2022-11-04T04:28:59;17.90;64.50
67820;DHT22;54618;52.018;5.576;2022-11-04T04:31:29;17.90;64.50
67820;DHT22;54618;52.018;5.576;2022-11-04T04:34:19;17.90;64.50
67820;DHT22;54618;52.018;5.576;2022-11-04T04:36:52;17.90;64.60
67820;DHT22;54618;52.018;5.576;2022-11-04T04:39:22;17.90;64.50
67820;DHT22;54618;52.018;5.576;2022-11-04T04:42:08;17.90;64.50
67820;DHT22;54618;52.018;5.576;2022-11-04T04:44:53;17.90;64.50
67820;DHT22;54618;52.018;5.576;2022-11-04T04:47:41;17.90;64.50
67820;DHT22;54618;52.018;5.576;2022-11-04T04:50:09;17.90;64.50
67820;DHT22;54618;52.018;5.576;2022-11-04T04:52:40;17.90;64.50
67820;DHT22;54618;52.018;5.576;2022-11-04T04:55:07;17.90;64.50
67820;DHT22;54618;52.018;5.576;2022-11-04T04:57:33;17.90;64.50
67820;DHT22;54618;52.018;5.576;2022-11-04T04:59:59;17.90;64.50
67820;DHT22;54618;52.018;5.576;2022-11-04T05:02:24;17.90;64.50
67820;DHT22;54618;52.018;5.576;2022-11-04T05:04:50;17.90;64.50
67820;DHT22;54618;52.018;5.576;2022-11-04T05:07:15;17.90;64.50
67820;DHT22;54618;52.018;5.576;2022-11-04T05:09:41;17.90;64.50
67820;DHT22;54618;52.018;5.576;2022-11-04T05:12:06;17.90;64.50
67820;DHT22;54618;52.018;5.576;2022-11-04T05:14:32;17.90;64.50
67820;DHT22;54618;52.018;5.576;2022-11-04T05:16:58;17.90;64.50
67820;DHT22;54618;52.018;5.576;2022-11-04T05:19:23;17.90;64.50
67820;DHT22;54618;52.018;5.576;2022-11-04T05:21:49;17.90;64.50
67820;DHT22;54618;52.018;5.576;2022-11-04T05:24:14;17.90;64.50
67820;DHT22;54618;52.018;5.576;2022-11-04T05:26:40;17.90;64.50
67820;DHT22;54618;52.018;5.576;2022-11-04T05:29:05;17.90;64.40
67820;DHT22;54618;52.018;5.576;2022-11-04T05:31:31;17.90;64.40
67820;DHT22;54618;52.018;5.576;2022-11-04T05:33:56;17.90;64.40
67820;DHT22;54618;52.018;5.576;2022-11-04T05:36:24;17.90;64.50
67820;DHT22;54618;52.018;5.576;2022-11-04T05:38:51;17.90;64.40
67820;DHT22;54618;52.018;5.576;2022-11-04T05:41:17;17.90;64.40
67820;DHT22;54618;52.018;5.576;2022-11-04T05:43:52;17.90;64.40
67820;DHT22;54618;52.018;5.576;2022-11-04T05:46:18;17.90;64.40
67820;DHT22;54618;52.018;5.576;2022-11-04T05:48:44;17.90;64.40
67820;DHT22;54618;52.018;5.576;2022-11-04T05:51:18;17.90;64.40
67820;DHT22;54618;52.018;5.576;2022-11-04T05:53:43;17.90;64.40
67820;DHT22;54618;52.018;5.576;2022-11-04T05:56:09;17.90;64.40
67820;DHT22;54618;52.018;5.576;2022-11-04T05:58:34;17.90;64.40
67820;DHT22;54618;52.018;5.576;2022-11-04T06:01:31;17.90;64.40
67820;DHT22;54618;52.018;5.576;2022-11-04T06:03:58;17.90;64.40
67820;DHT22;54618;52.018;5.576;2022-11-04T06:06:26;17.90;64.30
67820;DHT22;54618;52.018;5.576;2022-11-04T06:08:53;17.90;64.30
67820;DHT22;54618;52.018;5.576;2022-11-04T06:11:19;17.90;64.30
67820;DHT22;54618;52.018;5.576;2022-11-04T06:13:45;17.90;64.30
67820;DHT22;54618;52.018;5.576;2022-11-04T06:16:10;17.90;64.30
67820;DHT22;54618;52.018;5.576;2022-11-04T06:18:36;17.90;64.30
67820;DHT22;54618;52.018;5.576;2022-11-04T06:23:34;17.90;64.30
67820;DHT22;54618;52.018;5.576;2022-11-04T06:26:00;17.90;64.30
67820;DHT22;54618;52.018;5.576;2022-11-04T06:28:26;17.90;64.30
67820;DHT22;54618;52.018;5.576;2022-11-04T06:30:51;17.90;64.20
67820;DHT22;54618;52.018;5.576;2022-11-04T06:33:17;17.80;64.20
67820;DHT22;54618;52.018;5.576;2022-11-04T06:35:42;17.90;64.30
67820;DHT22;54618;52.018;5.576;2022-11-04T06:38:08;17.90;64.30
67820;DHT22;54618;52.018;5.576;2022-11-04T06:40:33;17.90;64.30
67820;DHT22;54618;52.018;5.576;2022-11-04T06:42:59;17.90;64.30
67820;DHT22;54618;52.018;5.576;2022-11-04T06:45:24;17.80;64.20
67820;DHT22;54618;52.018;5.576;2022-11-04T06:47:50;17.80;64.20
67820;DHT22;54618;52.018;5.576;2022-11-04T06:50:15;17.80;64.20
67820;DHT22;54618;52.018;5.576;2022-11-04T06:52:41;17.90;64.30
67820;DHT22;54618;52.018;5.576;2022-11-04T06:55:07;17.80;64.20
67820;DHT22;54618;52.018;5.576;2022-11-04T06:57:33;17.80;64.10
67820;DHT22;54618;52.018;5.576;2022-11-04T06:59:59;17.80;64.10
67820;DHT22;54618;52.018;5.576;2022-11-04T07:02:24;17.80;64.10
67820;DHT22;54618;52.018;5.576;2022-11-04T07:04:50;17.90;64.20
67820;DHT22;54618;52.018;5.576;2022-11-04T07:07:15;17.80;64.10
67820;DHT22;54618;52.018;5.576;2022-11-04T07:09:41;17.90;64.20
67820;DHT22;54618;52.018;5.576;2022-11-04T07:12:06;17.90;64.10
67820;DHT22;54618;52.018;5.576;2022-11-04T07:14:32;17.80;64.10
67820;DHT22;54618;52.018;5.576;2022-11-04T07:16:58;17.80;64.10
67820;DHT22;54618;52.018;5.576;2022-11-04T07:19:23;17.80;64.10
67820;DHT22;54618;52.018;5.576;2022-11-04T07:21:49;17.80;64.10
67820;DHT22;54618;52.018;5.576;2022-11-04T07:24:14;17.90;64.10
67820;DHT22;54618;52.018;5.576;2022-11-04T07:26:40;17.80;64.10
67820;DHT22;54618;52.018;5.576;2022-11-04T07:29:07;17.80;64.10
67820;DHT22;54618;52.018;5.576;2022-11-04T07:31:36;17.80;64.10
67820;DHT22;54618;52.018;5.576;2022-11-04T07:34:01;17.80;64.10
67820;DHT22;54618;52.018;5.576;2022-11-04T07:36:27;17.80;64.10
67820;DHT22;54618;52.018;5.576;2022-11-04T07:38:53;17.80;64.10
67820;DHT22;54618;52.018;5.576;2022-11-04T07:41:19;17.90;64.10
67820;DHT22;54618;52.018;5.576;2022-11-04T07:43:49;17.80;64.00
67820;DHT22;54618;52.018;5.576;2022-11-04T07:46:16;17.80;64.00
67820;DHT22;54618;52.018;5.576;2022-11-04T07:48:42;17.80;64.00
67820;DHT22;54618;52.018;5.576;2022-11-04T07:51:11;17.80;64.00
67820;DHT22;54618;52.018;5.576;2022-11-04T07:53:37;17.90;64.10
67820;DHT22;54618;52.018;5.576;2022-11-04T07:56:07;17.90;64.10
67820;DHT22;54618;52.018;5.576;2022-11-04T07:58:35;17.80;64.00
67820;DHT22;54618;52.018;5.576;2022-11-04T08:01:03;17.80;64.00
67820;DHT22;54618;52.018;5.576;2022-11-04T08:03:29;17.80;64.00
67820;DHT22;54618;52.018;5.576;2022-11-04T08:05:57;17.80;64.00
67820;DHT22;54618;52.018;5.576;2022-11-04T08:08:23;17.90;64.00
67820;DHT22;54618;52.018;5.576;2022-11-04T08:10:57;17.80;63.90
67820;DHT22;54618;52.018;5.576;2022-11-04T08:13:26;17.90;64.00
67820;DHT22;54618;52.018;5.576;2022-11-04T08:15:52;17.90;64.00
67820;DHT22;54618;52.018;5.576;2022-11-04T08:18:18;17.90;63.90
67820;DHT22;54618;52.018;5.576;2022-11-04T08:20:48;17.90;63.90
67820;DHT22;54618;52.018;5.576;2022-11-04T08:23:15;17.80;63.90
67820;DHT22;54618;52.018;5.576;2022-11-04T08:25:40;17.90;64.00
67820;DHT22;54618;52.018;5.576;2022-11-04T08:28:06;17.90;64.00
67820;DHT22;54618;52.018;5.576;2022-11-04T08:30:31;17.90;64.00
67820;DHT22;54618;52.018;5.576;2022-11-04T08:32:58;17.90;64.00
67820;DHT22;54618;52.018;5.576;2022-11-04T08:35:24;17.90;64.00
67820;DHT22;54618;52.018;5.576;2022-11-04T08:37:50;17.90;63.90
67820;DHT22;54618;52.018;5.576;2022-11-04T08:40:15;17.90;63.90
67820;DHT22;54618;52.018;5.576;2022-11-04T08:42:41;17.90;64.00
67820;DHT22;54618;52.018;5.576;2022-11-04T08:45:07;17.90;64.00
67820;DHT22;54618;52.018;5.576;2022-11-04T08:47:32;17.90;64.00
67820;DHT22;54618;52.018;5.576;2022-11-04T08:49:58;17.90;64.00
67820;DHT22;54618;52.018;5.576;2022-11-04T08:52:23;17.90;64.10
67820;DHT22;54618;52.018;5.576;2022-11-04T08:54:52;17.90;64.00
67820;DHT22;54618;52.018;5.576;2022-11-04T08:57:18;17.90;64.00
67820;DHT22;54618;52.018;5.576;2022-11-04T08:59:43;17.90;64.00
67820;DHT22;54618;52.018;5.576;2022-11-04T09:02:15;17.90;64.00
67820;DHT22;54618;52.018;5.576;2022-11-04T09:04:41;17.90;64.00
67820;DHT22;54618;52.018;5.576;2022-11-04T09:07:06;17.90;64.00
67820;DHT22;54618;52.018;5.576;2022-11-04T09:09:32;17.90;64.00
67820;DHT22;54618;52.018;5.576;2022-11-04T09:11:58;17.90;64.10
67820;DHT22;54618;52.018;5.576;2022-11-04T09:14:23;17.90;64.10
67820;DHT22;54618;52.018;5.576;2022-11-04T09:16:49;17.90;64.10
67820;DHT22;54618;52.018;5.576;2022-11-04T09:19:14;17.90;64.10
67820;DHT22;54618;52.018;5.576;2022-11-04T09:21:40;17.90;64.00
67820;DHT22;54618;52.018;5.576;2022-11-04T09:24:06;17.90;64.00
67820;DHT22;54618;52.018;5.576;2022-11-04T09:26:32;17.80;64.00
67820;DHT22;54618;52.018;5.576;2022-11-04T09:28:58;17.90;64.00
67820;DHT22;54618;52.018;5.576;2022-11-04T09:31:26;17.90;64.00
67820;DHT22;54618;52.018;5.576;2022-11-04T09:33:53;17.90;64.00
67820;DHT22;54618;52.018;5.576;2022-11-04T09:36:19;17.80;64.00
67820;DHT22;54618;52.018;5.576;2022-11-04T09:38:45;17.90;64.00
67820;DHT22;54618;52.018;5.576;2022-11-04T09:41:36;17.80;64.00
67820;DHT22;54618;52.018;5.576;2022-11-04T09:44:17;17.90;64.00
67820;DHT22;54618;52.018;5.576;2022-11-04T09:46:46;17.90;64.00
67820;DHT22;54618;52.018;5.576;2022-11-04T09:49:14;17.90;64.00
67820;DHT22;54618;52.018;5.576;2022-11-04T09:51:41;17.80;63.90
67820;DHT22;54618;52.018;5.576;2022-11-04T09:56:43;17.90;64.00
67820;DHT22;54618;52.018;5.576;2022-11-04T09:59:18;17.80;63.90
67820;DHT22;54618;52.018;5.576;2022-11-04T10:01:55;17.80;63.90
67820;DHT22;54618;52.018;5.576;2022-11-04T10:07:36;17.80;63.90
67820;DHT22;54618;52.018;5.576;2022-11-04T10:10:24;17.80;63.90
67820;DHT22;54618;52.018;5.576;2022-11-04T10:13:05;17.90;63.90
67820;DHT22;54618;52.018;5.576;2022-11-04T10:16:00;17.80;64.40
67820;DHT22;54618;52.018;5.576;2022-11-04T10:21:43;17.80;63.90
67820;DHT22;54618;52.018;5.576;2022-11-04T10:27:11;17.80;63.90
67820;DHT22;54618;52.018;5.576;2022-11-04T10:29:42;17.80;63.90
67820;DHT22;54618;52.018;5.576;2022-11-04T10:32:14;17.80;63.90
67820;DHT22;54618;52.018;5.576;2022-11-04T10:37:19;17.80;63.90
67820;DHT22;54618;52.018;5.576;2022-11-04T10:39:46;17.80;63.90
67820;DHT22;54618;52.018;5.576;2022-11-04T10:42:15;17.80;64.10
67820;DHT22;54618;52.018;5.576;2022-11-04T10:44:42;17.80;64.00
67820;DHT22;54618;52.018;5.576;2022-11-04T10:47:25;17.80;63.90
67820;DHT22;54618;52.018;5.576;2022-11-04T10:49:59;17.80;63.90
67820;DHT22;54618;52.018;5.576;2022-11-04T10:52:27;17.80;64.00
67820;DHT22;54618;52.018;5.576;2022-11-04T10:54:53;17.80;64.00
67820;DHT22;54618;52.018;5.576;2022-11-04T10:57:21;17.80;64.00
67820;DHT22;54618;52.018;5.576;2022-11-04T10:59:59;17.80;64.00
67820;DHT22;54618;52.018;5.576;2022-11-04T11:02:51;17.80;63.90
67820;DHT22;54618;52.018;5.576;2022-11-04T11:07:43;17.80;64.00
67820;DHT22;54618;52.018;5.576;2022-11-04T11:10:18;17.80;64.00
67820;DHT22;54618;52.018;5.576;2022-11-04T11:12:54;17.80;64.00
67820;DHT22;54618;52.018;5.576;2022-11-04T11:17:52;17.80;64.00
67820;DHT22;54618;52.018;5.576;2022-11-04T11:20:23;17.80;63.90
67820;DHT22;54618;52.018;5.576;2022-11-04T11:22:50;17.80;64.00
67820;DHT22;54618;52.018;5.576;2022-11-04T11:25:30;17.80;63.90
67820;DHT22;54618;52.018;5.576;2022-11-04T11:30:30;17.80;64.00
67820;DHT22;54618;52.018;5.576;2022-11-04T11:33:04;17.80;63.90
67820;DHT22;54618;52.018;5.576;2022-11-04T11:35:38;17.80;63.90
67820;DHT22;54618;52.018;5.576;2022-11-04T11:38:16;17.80;63.90
67820;DHT22;54618;52.018;5.576;2022-11-04T11:40:44;17.80;64.00
67820;DHT22;54618;52.018;5.576;2022-11-04T11:43:29;17.80;63.90
67820;DHT22;54618;52.018;5.576;2022-11-04T11:45:55;17.80;63.90
67820;DHT22;54618;52.018;5.576;2022-11-04T11:50:56;17.80;63.90
67820;DHT22;54618;52.018;5.576;2022-11-04T11:53:26;17.80;63.90
67820;DHT22;54618;52.018;5.576;2022-11-04T11:59:06;17.80;63.90
67820;DHT22;54618;52.018;5.576;2022-11-04T12:01:43;17.80;63.90
67820;DHT22;54618;52.018;5.576;2022-11-04T12:04:11;17.80;63.90
67820;DHT22;54618;52.018;5.576;2022-11-04T12:15:41;17.80;63.90
67820;DHT22;54618;52.018;5.576;2022-11-04T12:18:39;17.80;63.90
67820;DHT22;54618;52.018;5.576;2022-11-04T12:21:15;17.80;63.90
67820;DHT22;54618;52.018;5.576;2022-11-04T12:26:33;17.80;63.90
67820;DHT22;54618;52.018;5.576;2022-11-04T12:30:07;17.80;63.90
67820;DHT22;54618;52.018;5.576;2022-11-04T12:34:54;17.80;63.90
67820;DHT22;54618;52.018;5.576;2022-11-04T12:37:36;17.80;63.90
67820;DHT22;54618;52.018;5.576;2022-11-04T12:40:21;17.80;63.90
67820;DHT22;54618;52.018;5.576;2022-11-04T12:48:47;17.80;63.90
67820;DHT22;54618;52.018;5.576;2022-11-04T12:51:25;17.80;63.90
67820;DHT22;54618;52.018;5.576;2022-11-04T12:56:38;17.80;64.00
67820;DHT22;54618;52.018;5.576;2022-11-04T13:02:25;17.80;63.70
67820;DHT22;54618;52.018;5.576;2022-11-04T13:05:05;17.80;63.50
67820;DHT22;54618;52.018;5.576;2022-11-04T13:07:39;17.80;63.40
67820;DHT22;54618;52.018;5.576;2022-11-04T13:10:30;17.80;63.60
67820;DHT22;54618;52.018;5.576;2022-11-04T13:13:00;17.70;63.60
67820;DHT22;54618;52.018;5.576;2022-11-04T13:15:29;17.70;63.60
67820;DHT22;54618;52.018;5.576;2022-11-04T13:18:04;17.70;63.60
67820;DHT22;54618;52.018;5.576;2022-11-04T13:20:38;17.70;63.60
67820;DHT22;54618;52.018;5.576;2022-11-04T13:23:11;17.70;63.60
67820;DHT22;54618;52.018;5.576;2022-11-04T13:25:44;17.70;63.60
67820;DHT22;54618;52.018;5.576;2022-11-04T13:28:13;17.70;63.60
67820;DHT22;54618;52.018;5.576;2022-11-04T13:30:50;17.70;63.70
67820;DHT22;54618;52.018;5.576;2022-11-04T13:38:44;17.70;63.70
67820;DHT22;54618;52.018;5.576;2022-11-04T13:41:39;17.70;63.70
67820;DHT22;54618;52.018;5.576;2022-11-04T13:44:23;17.70;63.70
67820;DHT22;54618;52.018;5.576;2022-11-04T13:46:52;17.70;64.30
67820;DHT22;54618;52.018;5.576;2022-11-04T13:49:23;17.70;63.70
67820;DHT22;54618;52.018;5.576;2022-11-04T13:52:15;17.70;63.70
67820;DHT22;54618;52.018;5.576;2022-11-04T13:54:48;17.70;63.60
67820;DHT22;54618;52.018;5.576;2022-11-04T14:02:53;17.70;63.70
67820;DHT22;54618;52.018;5.576;2022-11-04T14:18:47;17.80;63.70
67820;DHT22;54618;52.018;5.576;2022-11-04T14:21:18;17.80;63.70
67820;DHT22;54618;52.018;5.576;2022-11-04T14:23:56;17.80;63.70
67820;DHT22;54618;52.018;5.576;2022-11-04T14:26:45;17.70;63.60
67820;DHT22;54618;52.018;5.576;2022-11-04T14:29:20;17.80;63.70
67820;DHT22;54618;52.018;5.576;2022-11-04T14:31:50;17.70;63.70
67820;DHT22;54618;52.018;5.576;2022-11-04T14:34:26;17.70;63.70
67820;DHT22;54618;52.018;5.576;2022-11-04T14:37:00;17.70;63.70
67820;DHT22;54618;52.018;5.576;2022-11-04T14:39:32;17.80;63.80
67820;DHT22;54618;52.018;5.576;2022-11-04T14:42:02;17.80;63.80
67820;DHT22;54618;52.018;5.576;2022-11-04T14:44:34;17.80;63.80
67820;DHT22;54618;52.018;5.576;2022-11-04T14:47:29;17.80;63.70
67820;DHT22;54618;52.018;5.576;2022-11-04T14:57:38;17.80;63.70
67820;DHT22;54618;52.018;5.576;2022-11-04T15:02:46;17.80;63.70
67820;DHT22;54618;52.018;5.576;2022-11-04T15:05:26;17.80;63.70
67820;DHT22;54618;52.018;5.576;2022-11-04T15:07:53;17.80;63.70
67820;DHT22;54618;52.018;5.576;2022-11-04T15:10:25;17.80;63.40
67820;DHT22;54618;52.018;5.576;2022-11-04T15:12:52;17.70;62.80
67820;DHT22;54618;52.018;5.576;2022-11-04T15:15:40;17.70;62.80
67820;DHT22;54618;52.018;5.576;2022-11-04T15:18:13;17.70;62.80
67820;DHT22;54618;52.018;5.576;2022-11-04T15:20:49;17.80;63.50
67820;DHT22;54618;52.018;5.576;2022-11-04T15:23:42;17.80;62.80
67820;DHT22;54618;52.018;5.576;2022-11-04T15:26:25;17.90;62.80
67820;DHT22;54618;52.018;5.576;2022-11-04T15:28:52;17.90;62.70
67820;DHT22;54618;52.018;5.576;2022-11-04T15:31:21;18.00;62.50
67820;DHT22;54618;52.018;5.576;2022-11-04T15:33:49;18.00;62.70
67820;DHT22;54618;52.018;5.576;2022-11-04T15:36:21;18.00;62.70
67820;DHT22;54618;52.018;5.576;2022-11-04T15:39:33;18.10;62.70
67820;DHT22;54618;52.018;5.576;2022-11-04T15:41:56;18.10;62.60
67820;DHT22;54618;52.018;5.576;2022-11-04T15:44:45;18.10;62.60
67820;DHT22;54618;52.018;5.576;2022-11-04T15:47:19;18.10;62.60
67820;DHT22;54618;52.018;5.576;2022-11-04T15:49:47;18.10;62.60
67820;DHT22;54618;52.018;5.576;2022-11-04T15:52:22;18.20;62.60
67820;DHT22;54618;52.018;5.576;2022-11-04T15:54:50;18.10;62.50
67820;DHT22;54618;52.018;5.576;2022-11-04T15:57:22;18.10;62.50
67820;DHT22;54618;52.018;5.576;2022-11-04T15:59:56;18.20;62.60
67820;DHT22;54618;52.018;5.576;2022-11-04T16:02:28;18.20;62.60
67820;DHT22;54618;52.018;5.576;2022-11-04T16:07:47;18.20;62.40
67820;DHT22;54618;52.018;5.576;2022-11-04T16:10:26;18.20;62.60
67820;DHT22;54618;52.018;5.576;2022-11-04T16:12:59;18.20;62.50
67820;DHT22;54618;52.018;5.576;2022-11-04T16:15:29;18.20;62.60
67820;DHT22;54618;52.018;5.576;2022-11-04T16:17:55;18.20;62.40
67820;DHT22;54618;52.018;5.576;2022-11-04T16:20:21;18.20;62.60
67820;DHT22;54618;52.018;5.576;2022-11-04T16:22:46;18.10;62.60
67820;DHT22;54618;52.018;5.576;2022-11-04T16:25:21;18.10;62.50
67820;DHT22;54618;52.018;5.576;2022-11-04T16:27:47;18.10;62.50
67820;DHT22;54618;52.018;5.576;2022-11-04T16:30:18;18.10;62.50
67820;DHT22;54618;52.018;5.576;2022-11-04T16:32:45;18.10;62.50
67820;DHT22;54618;52.018;5.576;2022-11-04T16:35:38;18.10;62.30
67820;DHT22;54618;52.018;5.576;2022-11-04T16:38:07;18.10;62.40
67820;DHT22;54618;52.018;5.576;2022-11-04T16:40:33;18.10;62.60
67820;DHT22;54618;52.018;5.576;2022-11-04T16:42:59;18.10;62.60
67820;DHT22;54618;52.018;5.576;2022-11-04T16:45:35;18.10;62.50
67820;DHT22;54618;52.018;5.576;2022-11-04T16:48:02;18.10;62.50
67820;DHT22;54618;52.018;5.576;2022-11-04T16:50:28;18.10;62.50
67820;DHT22;54618;52.018;5.576;2022-11-04T16:52:53;18.10;62.50
67820;DHT22;54618;52.018;5.576;2022-11-04T16:55:20;18.10;62.50
67820;DHT22;54618;52.018;5.576;2022-11-04T16:57:50;18.10;62.50
67820;DHT22;54618;52.018;5.576;2022-11-04T17:00:20;18.00;62.50
67820;DHT22;54618;52.018;5.576;2022-11-04T17:02:46;18.10;62.50
67820;DHT22;54618;52.018;5.576;2022-11-04T17:05:12;18.10;62.50
67820;DHT22;54618;52.018;5.576;2022-11-04T17:07:38;18.10;62.60
67820;DHT22;54618;52.018;5.576;2022-11-04T17:10:15;18.00;62.50
67820;DHT22;54618;52.018;5.576;2022-11-04T17:12:41;18.00;62.40
67820;DHT22;54618;52.018;5.576;2022-11-04T17:15:07;18.00;62.50
67820;DHT22;54618;52.018;5.576;2022-11-04T17:17:33;18.10;62.50
67820;DHT22;54618;52.018;5.576;2022-11-04T17:19:58;18.00;62.40
67820;DHT22;54618;52.018;5.576;2022-11-04T17:22:24;18.00;62.40
67820;DHT22;54618;52.018;5.576;2022-11-04T17:24:49;18.00;62.50
67820;DHT22;54618;52.018;5.576;2022-11-04T17:27:15;18.10;62.50
67820;DHT22;54618;52.018;5.576;2022-11-04T17:29:41;18.00;62.40
67820;DHT22;54618;52.018;5.576;2022-11-04T17:32:07;18.00;62.40
67820;DHT22;54618;52.018;5.576;2022-11-04T17:34:33;18.10;62.40
67820;DHT22;54618;52.018;5.576;2022-11-04T17:37:00;18.00;62.40
67820;DHT22;54618;52.018;5.576;2022-11-04T17:39:25;18.10;62.50
67820;DHT22;54618;52.018;5.576;2022-11-04T17:41:51;18.00;62.40
67820;DHT22;54618;52.018;5.576;2022-11-04T17:44:35;18.00;62.30
67820;DHT22;54618;52.018;5.576;2022-11-04T17:47:01;18.10;62.40
67820;DHT22;54618;52.018;5.576;2022-11-04T17:49:26;18.00;62.30
67820;DHT22;54618;52.018;5.576;2022-11-04T17:51:57;18.00;62.30
67820;DHT22;54618;52.018;5.576;2022-11-04T17:54:26;18.00;62.30